Aérodrome :
LOGIN :

S'inscrire | Disclaimer

   EN    FR    IT 

 










Légende :    VFR   VFR Marginal   IFR   IFR Intensif   IFR Très Intensif
Visi : 
Plafond : 
>= 8 km
>= 3000ft
5 à 8 km
1000 à 3000 ft
1500m à 5 km
500 à 1000 ft
800 à 1500m
200 à 500 ft
< 800m
< 200 ft
Symboles :   Orages  Brouillard  Fortes neiges  Fortes précipitations  Vent > 20 kt
SIGMETs :   Divers  Orages  Givrage  Turbulence  Onde Orograph.  Cendres Volcan.






- Altitude de l'aérodrome : 794 ft


LKCV - Čáslav Air Base

DERNIER METAR :
  • 241900Z 26001KT 9999 -RA FEW033 OVC080 16/14 Q1011 NOSIG RMK BLU BLU

METARs EXPIRÉS :
  • 241830Z 23004KT 9999 SCT020 OVC070 16/14 Q1010 NOSIG RMK BLU BLU
  • 241800Z 27003KT 9999 -RA BKN018 OVC070 16/15 Q1011 NOSIG
  • 241700Z VRB01KT CAVOK 17/15 Q1010 NOSIG

TAF TAF LKCV
Valide du 24 à 18h jusqu'au 25 à 18h UTC


241700Z 2418/2518 24008KT 9999 BKN035
TEMPO 2418/2420 28014KT 7000 SHRA BKN028TCU
PROB30
TEMPO 2418/2419 30014G24KT 5000 TSRA BKN022CB
TEMPO 2420/2508 30006KT 6000 RA BKN020 OVC030



MET'MAP, la Météo Aéronautique d'un coup d'oeil ! - Copyright ORBIFLY Décembre 2007 - Disclaimer

ORBIFLY MET'MAP TEAM :

Programmation & Développement : Alexandra Zaïnal
Sur une idée originale de : Baudouin d'Aumeries
Soutien technique & logistique : Manuel Goepfert
Assistance : Marc-Olivier Méhu

Contact : metmap@orbifly.com




SOURCES & CREDITS :

   NOAA